Terminal Aerodrome Forecast
Issued by NWS

Home | Current Version | Previous Version | Text Only | Print | Product List | Glossary On
Versions: 1 2 3 4 5 6 7 8 9 10 11 12
000
FTPA31 PHFO 110523
TAFHJR
TAF
PHJR 110523Z 1106/1206 VRB04KT P6SM SKC
     FM112000 11008G13KT P6SM FEW030 SCT050
     FM120400 VRB05KT P6SM FEW030 SCT050=

USA.gov is the U.S. government's official web portal to all federal, state and local government web resources and services.